createdAt,value
2023-05-13T00:00:25.365Z,13.38
2023-05-13T00:01:26.516Z,13.38
2023-05-13T00:02:25.755Z,13.32
2023-05-13T00:03:26.136Z,13.31
2023-05-13T00:04:25.146Z,13.29
2023-05-13T00:05:26.356Z,13.27
2023-05-13T00:06:26.603Z,13.25
2023-05-13T00:07:25.642Z,13.22
2023-05-13T00:08:24.901Z,13.19
2023-05-13T00:09:26.050Z,13.17
2023-05-13T00:10:26.253Z,13.16
2023-05-13T00:11:25.460Z,13.16
2023-05-13T00:12:25.675Z,13.22
2023-05-13T00:13:25.822Z,13.19
2023-05-13T00:14:25.055Z,13.19
2023-05-13T00:15:26.203Z,13.22
2023-05-13T00:16:25.489Z,13.22
2023-05-13T00:17:25.607Z,13.22
2023-05-13T00:18:24.855Z,13.27
2023-05-13T00:19:25.054Z,13.27
2023-05-13T00:20:25.259Z,13.28
2023-05-13T00:21:25.426Z,13.31
2023-05-13T00:22:25.586Z,13.32
2023-05-13T00:23:25.762Z,13.36
2023-05-13T00:24:25.161Z,13.41
2023-05-13T00:25:26.218Z,13.41
2023-05-13T00:26:24.420Z,13.39
2023-05-13T00:27:25.585Z,13.44
2023-05-13T00:28:24.829Z,13.43
2023-05-13T00:29:26.019Z,13.43
2023-05-13T00:30:26.323Z,13.44
2023-05-13T00:31:25.493Z,13.44
2023-05-13T00:32:25.648Z,13.44
2023-05-13T00:33:24.880Z,13.46
2023-05-13T00:34:25.078Z,13.43
2023-05-13T00:35:26.293Z,13.43
2023-05-13T00:36:25.408Z,13.41
2023-05-13T00:37:25.609Z,13.39
2023-05-13T00:38:25.805Z,13.39
2023-05-13T00:39:26.006Z,13.39
2023-05-13T00:40:25.203Z,13.41
2023-05-13T00:41:25.469Z,13.39
2023-05-13T00:42:24.603Z,13.35
2023-05-13T00:43:25.875Z,13.35
2023-05-13T00:44:25.082Z,13.29
2023-05-13T00:45:24.195Z,13.24
2023-05-13T00:46:24.536Z,13.24
2023-05-13T00:47:25.651Z,13.24
2023-05-13T00:48:24.792Z,13.22
2023-05-13T00:49:25.038Z,13.22
2023-05-13T00:50:25.155Z,13.21
2023-05-13T00:51:24.393Z,13.16
2023-05-13T00:52:24.559Z,13.17
2023-05-13T00:53:25.793Z,13.13
2023-05-13T00:54:24.940Z,13.14
2023-05-13T00:55:24.122Z,13.14
2023-05-13T00:56:24.273Z,13.14
2023-05-13T00:57:24.528Z,13.16
2023-05-13T00:58:25.637Z,13.16
2023-05-13T00:59:24.944Z,13.17
2023-05-13T01:00:25.060Z,13.21
2023-05-13T01:01:24.326Z,13.22
2023-05-13T01:02:25.496Z,13.24
2023-05-13T01:03:25.621Z,13.24
2023-05-13T01:04:24.840Z,13.27
2023-05-13T01:05:24.031Z,13.27
2023-05-13T01:06:25.176Z,13.27
2023-05-13T01:07:24.433Z,13.25
2023-05-13T01:08:24.603Z,13.24
2023-05-13T01:09:25.726Z,13.22
2023-05-13T01:10:24.884Z,13.22
2023-05-13T01:11:25.112Z,13.19
2023-05-13T01:12:25.311Z,13.21
2023-05-13T01:13:25.486Z,13.19
2023-05-13T01:14:25.745Z,13.14
2023-05-13T01:15:24.923Z,13.12
2023-05-13T01:16:24.179Z,13.07
2023-05-13T01:17:25.675Z,13.06
2023-05-13T01:18:24.575Z,13.04
2023-05-13T01:19:24.646Z,13.03
2023-05-13T01:20:24.884Z,12.99
2023-05-13T01:21:24.077Z,12.96
2023-05-13T01:22:24.279Z,12.92
2023-05-13T01:23:25.462Z,12.89
2023-05-13T01:24:23.655Z,12.87
2023-05-13T01:25:23.858Z,12.85
2023-05-13T01:26:24.024Z,12.81
2023-05-13T01:27:25.218Z,12.79
2023-05-13T01:28:25.388Z,12.77
2023-05-13T01:29:23.666Z,12.74
2023-05-13T01:30:24.842Z,12.73
2023-05-13T01:31:25.054Z,12.69
2023-05-13T01:32:25.201Z,12.67
2023-05-13T01:33:24.446Z,12.67
2023-05-13T01:34:24.571Z,12.70
2023-05-13T01:35:24.920Z,12.62
2023-05-13T01:36:24.063Z,12.63
2023-05-13T01:37:24.273Z,12.61
2023-05-13T01:38:23.422Z,12.59
2023-05-13T01:39:23.634Z,12.58
2023-05-13T01:41:25.083Z,12.56
2023-05-13T01:42:25.159Z,12.55
2023-05-13T01:43:23.405Z,12.55
2023-05-13T01:44:23.568Z,12.54
2023-05-13T01:45:24.742Z,12.54
2023-05-13T01:46:25.028Z,12.55
2023-05-13T01:47:24.304Z,12.58
2023-05-13T01:48:23.415Z,12.59
2023-05-13T01:49:23.599Z,12.61
2023-05-13T01:50:24.148Z,12.66
2023-05-13T01:51:24.047Z,12.63
2023-05-13T01:52:24.262Z,12.63
2023-05-13T01:53:24.394Z,12.63
2023-05-13T01:54:24.535Z,12.62
2023-05-13T01:55:24.812Z,12.59
2023-05-13T01:56:24.984Z,12.61
2023-05-13T01:57:23.213Z,12.56
2023-05-13T01:58:23.457Z,12.55
2023-05-13T01:59:23.621Z,12.52
2023-05-13T02:00:23.932Z,12.52
2023-05-13T02:01:24.081Z,12.52
2023-05-13T02:02:23.227Z,12.49
2023-05-13T02:03:23.481Z,12.49
2023-05-13T02:04:24.977Z,12.48
2023-05-13T02:05:23.799Z,12.48
2023-05-13T02:06:24.004Z,12.48
2023-05-13T02:07:23.184Z,12.46
2023-05-13T02:08:23.375Z,12.46
2023-05-13T02:09:23.571Z,12.44
2023-05-13T02:10:24.060Z,12.41
2023-05-13T02:11:24.962Z,12.38
2023-05-13T02:12:23.130Z,12.37
2023-05-13T02:13:23.333Z,12.36
2023-05-13T02:14:23.514Z,12.30
2023-05-13T02:15:24.652Z,12.29
2023-05-13T02:16:24.075Z,12.30
2023-05-13T02:17:23.123Z,12.26
2023-05-13T02:18:23.297Z,12.23
2023-05-13T02:19:23.482Z,12.23
2023-05-13T02:20:23.892Z,12.21
2023-05-13T02:21:24.794Z,12.21
2023-05-13T02:22:23.228Z,12.19
2023-05-13T02:23:24.191Z,12.21
2023-05-13T02:24:23.371Z,12.21
2023-05-13T02:25:23.587Z,12.23
2023-05-13T02:26:24.737Z,12.23
2023-05-13T02:27:22.962Z,12.21
2023-05-13T02:28:23.182Z,12.22
2023-05-13T02:29:23.360Z,12.21
2023-05-13T02:30:23.710Z,12.18
2023-05-13T02:31:22.750Z,12.15
2023-05-13T02:32:22.909Z,12.13
2023-05-13T02:33:23.085Z,12.08
2023-05-13T02:34:23.380Z,12.05
2023-05-13T02:35:23.504Z,12.01
2023-05-13T02:36:22.650Z,11.98
2023-05-13T02:37:23.803Z,11.98
2023-05-13T02:38:24.037Z,11.97
2023-05-13T02:39:23.282Z,11.96
2023-05-13T02:40:23.690Z,11.97
2023-05-13T02:41:22.658Z,11.96
2023-05-13T02:42:23.851Z,11.93
2023-05-13T02:43:23.114Z,11.93
2023-05-13T02:44:23.313Z,11.93
2023-05-13T02:45:23.506Z,11.90
2023-05-13T02:46:22.783Z,11.88
2023-05-13T02:47:23.923Z,11.90
2023-05-13T02:48:24.058Z,11.88
2023-05-13T02:49:23.301Z,11.90
2023-05-13T02:50:23.659Z,11.90
2023-05-13T02:51:22.645Z,11.90
2023-05-13T02:52:23.817Z,11.88
2023-05-13T02:53:24.018Z,11.87
2023-05-13T02:54:23.231Z,11.87
2023-05-13T02:55:23.470Z,11.87
2023-05-13T02:56:22.599Z,11.81
2023-05-13T02:57:23.762Z,11.78
2023-05-13T02:58:23.031Z,11.77
2023-05-13T02:59:23.263Z,11.77
2023-05-13T03:00:22.628Z,11.78
2023-05-13T03:01:23.584Z,11.77
2023-05-13T03:02:23.805Z,11.74
2023-05-13T03:03:23.091Z,11.69
2023-05-13T03:04:23.226Z,11.62
2023-05-13T03:05:22.369Z,11.56
2023-05-13T03:06:22.578Z,11.49
2023-05-13T03:07:23.773Z,11.46
2023-05-13T03:08:23.028Z,11.41
2023-05-13T03:09:23.284Z,11.36
2023-05-13T03:10:22.663Z,11.36
2023-05-13T03:11:23.556Z,11.33
2023-05-13T03:12:23.762Z,11.31
2023-05-13T03:13:23.042Z,11.28
2023-05-13T03:14:22.194Z,11.27
2023-05-13T03:15:22.499Z,11.23
2023-05-13T03:16:23.660Z,11.16
2023-05-13T03:17:22.882Z,11.16
2023-05-13T03:18:24.101Z,11.13
2023-05-13T03:19:22.252Z,11.19
2023-05-13T03:20:23.668Z,11.24
2023-05-13T03:21:23.713Z,11.24
2023-05-13T03:22:23.871Z,11.23
2023-05-13T03:23:22.089Z,11.21
2023-05-13T03:24:23.260Z,11.23
2023-05-13T03:25:22.506Z,11.24
2023-05-13T03:26:22.708Z,11.23
2023-05-13T03:27:23.990Z,11.21
2023-05-13T03:28:22.130Z,11.20
2023-05-13T03:29:22.333Z,11.20
2023-05-13T03:30:22.833Z,11.19
2023-05-13T03:31:22.838Z,11.20
2023-05-13T03:32:21.951Z,11.19
2023-05-13T03:33:22.200Z,11.19
2023-05-13T03:34:22.459Z,11.19
2023-05-13T03:35:23.536Z,11.17
2023-05-13T03:36:23.727Z,11.20
2023-05-13T03:37:21.949Z,11.21
2023-05-13T03:38:22.158Z,11.20
2023-05-13T03:39:23.351Z,11.16
2023-05-13T03:40:23.715Z,11.20
2023-05-13T03:41:23.706Z,11.20
2023-05-13T03:42:21.931Z,11.26
2023-05-13T03:43:22.184Z,11.26
2023-05-13T03:44:23.306Z,11.23
2023-05-13T03:45:23.554Z,11.19
2023-05-13T03:46:23.724Z,11.13
2023-05-13T03:47:22.887Z,11.11
2023-05-13T03:48:22.125Z,11.09
2023-05-13T03:49:22.269Z,11.08
2023-05-13T03:50:22.694Z,11.05
2023-05-13T03:51:21.708Z,11.03
2023-05-13T03:52:22.884Z,11.02
2023-05-13T03:53:23.085Z,11.01
2023-05-13T03:54:23.318Z,11.02
2023-05-13T03:55:23.522Z,11.01
2023-05-13T03:56:21.837Z,11.01
2023-05-13T03:57:21.997Z,11.02
2023-05-13T03:58:22.202Z,11.05
2023-05-13T03:59:23.426Z,11.05
2023-05-13T04:00:21.914Z,11.06
2023-05-13T04:01:22.797Z,11.08
2023-05-13T04:02:23.186Z,11.08
2023-05-13T04:03:23.308Z,11.12
2023-05-13T04:04:22.535Z,11.17
2023-05-13T04:05:22.757Z,11.20
2023-05-13T04:06:22.927Z,11.21
2023-05-13T04:07:23.205Z,11.21
2023-05-13T04:08:23.387Z,11.21
2023-05-13T04:09:22.611Z,11.24
2023-05-13T04:10:22.092Z,11.24
2023-05-13T04:11:23.069Z,11.23
2023-05-13T04:12:22.378Z,11.27
2023-05-13T04:13:22.522Z,11.27
2023-05-13T04:14:21.756Z,11.28
2023-05-13T04:15:22.012Z,11.30
2023-05-13T04:16:23.262Z,11.31
2023-05-13T04:17:21.545Z,11.28
2023-05-13T04:18:21.750Z,11.30
2023-05-13T04:19:22.898Z,11.33
2023-05-13T04:20:22.472Z,11.28
2023-05-13T04:21:22.321Z,11.27
2023-05-13T04:22:22.578Z,11.26
2023-05-13T04:23:22.584Z,11.23
2023-05-13T04:24:22.105Z,11.21
2023-05-13T04:25:22.241Z,11.19
2023-05-13T04:26:22.453Z,11.17
2023-05-13T04:27:22.670Z,11.16
2023-05-13T04:28:22.971Z,11.13
2023-05-13T04:29:22.230Z,11.11
2023-05-13T04:30:21.525Z,11.02
2023-05-13T04:31:22.590Z,10.94
2023-05-13T04:32:22.855Z,10.88
2023-05-13T04:33:22.127Z,10.81
2023-05-13T04:34:21.351Z,10.75
2023-05-13T04:35:22.506Z,10.70
2023-05-13T04:36:22.738Z,10.66
2023-05-13T04:37:23.054Z,10.62
2023-05-13T04:38:21.322Z,10.55
2023-05-13T04:39:21.454Z,10.54
2023-05-13T04:40:22.853Z,10.51
2023-05-13T04:41:22.857Z,10.47
2023-05-13T04:42:23.116Z,10.43
2023-05-13T04:43:22.361Z,10.38
2023-05-13T04:44:22.649Z,10.39
2023-05-13T04:45:22.821Z,10.36
2023-05-13T04:46:21.043Z,10.36
2023-05-13T04:47:22.275Z,10.36
2023-05-13T04:48:22.511Z,10.38
2023-05-13T04:49:21.827Z,10.39
2023-05-13T04:50:22.130Z,10.38
2023-05-13T04:51:22.346Z,10.42
2023-05-13T04:52:21.477Z,10.42
2023-05-13T04:53:22.722Z,10.44
2023-05-13T04:54:20.936Z,10.44
2023-05-13T04:55:22.812Z,10.43
2023-05-13T04:56:22.365Z,10.46
2023-05-13T04:57:21.647Z,10.46
2023-05-13T04:58:20.840Z,10.44
2023-05-13T04:59:21.071Z,10.49
2023-05-13T05:00:21.418Z,10.57
2023-05-13T05:01:22.502Z,10.60
2023-05-13T05:02:21.769Z,10.62
2023-05-13T05:03:21.049Z,10.66
2023-05-13T05:04:22.172Z,10.66
2023-05-13T05:05:22.388Z,10.69
2023-05-13T05:06:21.667Z,10.72
2023-05-13T05:07:20.900Z,10.68
2023-05-13T05:08:21.102Z,10.68
2023-05-13T05:09:21.386Z,10.66
2023-05-13T05:10:21.803Z,10.73
2023-05-13T05:11:20.823Z,10.75
2023-05-13T05:12:22.032Z,10.80
2023-05-13T05:13:21.364Z,10.87
2023-05-13T05:14:20.597Z,10.91
2023-05-13T05:15:20.899Z,10.95
2023-05-13T05:16:21.117Z,11.03
2023-05-13T05:17:22.595Z,11.08
2023-05-13T05:18:20.663Z,11.16
2023-05-13T05:19:20.914Z,11.19
2023-05-13T05:20:21.347Z,11.24
2023-05-13T05:21:22.295Z,11.26
2023-05-13T05:22:20.584Z,11.31
2023-05-13T05:23:20.848Z,11.31
2023-05-13T05:24:21.014Z,11.36
2023-05-13T05:25:21.264Z,11.39
2023-05-13T05:26:20.481Z,11.44
2023-05-13T05:27:20.569Z,11.46
2023-05-13T05:28:20.754Z,11.51
2023-05-13T05:29:21.021Z,11.56
2023-05-13T05:30:22.427Z,11.59
2023-05-13T05:31:20.430Z,11.63
2023-05-13T05:32:20.740Z,11.66
2023-05-13T05:33:20.898Z,11.69
2023-05-13T05:34:21.061Z,11.75
2023-05-13T05:35:21.238Z,11.75
2023-05-13T05:36:20.410Z,11.79
2023-05-13T05:37:20.662Z,11.84
2023-05-13T05:38:20.832Z,11.85
2023-05-13T05:39:21.017Z,11.88
2023-05-13T05:40:21.779Z,11.90
2023-05-13T05:41:20.453Z,11.93
2023-05-13T05:42:20.649Z,11.94
2023-05-13T05:43:20.874Z,11.97
2023-05-13T05:44:21.068Z,12.00
2023-05-13T05:45:20.264Z,12.00
2023-05-13T05:46:20.571Z,12.00
2023-05-13T05:47:20.710Z,12.01
2023-05-13T05:48:20.968Z,12.03
2023-05-13T05:49:20.134Z,12.05
2023-05-13T05:50:20.632Z,12.07
2023-05-13T05:51:20.617Z,12.11
2023-05-13T05:52:21.040Z,12.13
2023-05-13T05:53:21.023Z,12.15
2023-05-13T05:54:20.246Z,12.19
2023-05-13T05:55:21.384Z,12.21
2023-05-13T05:56:20.642Z,12.22
2023-05-13T05:57:20.933Z,12.26
2023-05-13T05:58:21.082Z,12.29
2023-05-13T05:59:20.237Z,12.33
2023-05-13T06:00:21.517Z,12.38
2023-05-13T06:01:21.641Z,12.40
2023-05-13T06:02:20.921Z,12.43
2023-05-13T06:03:20.212Z,12.43
2023-05-13T06:04:20.259Z,12.46
2023-05-13T06:05:21.347Z,12.46
2023-05-13T06:06:20.641Z,12.49
2023-05-13T06:07:20.811Z,12.52
2023-05-13T06:08:19.935Z,12.55
2023-05-13T06:09:20.631Z,12.56
2023-05-13T06:10:20.528Z,12.58
2023-05-13T06:11:20.568Z,12.58
2023-05-13T06:12:20.776Z,12.59
2023-05-13T06:13:19.924Z,12.62
2023-05-13T06:14:21.082Z,12.63
2023-05-13T06:15:20.366Z,12.67
2023-05-13T06:16:20.609Z,12.71
2023-05-13T06:17:20.769Z,12.76
2023-05-13T06:18:19.947Z,12.80
2023-05-13T06:19:20.138Z,12.84
2023-05-13T06:20:20.536Z,12.89
2023-05-13T06:21:20.570Z,12.94
2023-05-13T06:22:19.715Z,12.99
2023-05-13T06:23:19.918Z,13.01
2023-05-13T06:24:20.119Z,12.96
2023-05-13T06:25:21.272Z,12.99
2023-05-13T06:26:20.519Z,12.98
2023-05-13T06:27:19.736Z,13.01
2023-05-13T06:28:19.912Z,13.04
2023-05-13T06:29:20.101Z,13.06
2023-05-13T06:30:20.458Z,13.09
2023-05-13T06:31:20.558Z,13.09
2023-05-13T06:32:19.701Z,13.09
2023-05-13T06:33:20.045Z,13.10
2023-05-13T06:34:20.088Z,13.14
2023-05-13T06:35:20.293Z,13.14
2023-05-13T06:36:20.521Z,13.19
2023-05-13T06:37:20.641Z,13.22
2023-05-13T06:38:20.863Z,13.27
2023-05-13T06:39:20.324Z,13.31
2023-05-13T06:40:20.653Z,13.35
2023-05-13T06:41:20.467Z,13.29
2023-05-13T06:42:20.666Z,13.36
2023-05-13T06:43:20.871Z,13.36
2023-05-13T06:44:21.082Z,13.38
2023-05-13T06:45:20.389Z,13.41
2023-05-13T06:46:20.516Z,13.44
2023-05-13T06:47:21.714Z,13.50
2023-05-13T06:48:19.981Z,13.54
2023-05-13T06:49:20.216Z,13.61
2023-05-13T06:50:19.536Z,13.63
2023-05-13T06:51:19.729Z,13.68
2023-05-13T06:52:20.832Z,13.71
2023-05-13T06:53:20.054Z,13.72
2023-05-13T06:54:20.317Z,13.73
2023-05-13T06:55:19.482Z,13.73
2023-05-13T06:56:19.698Z,13.73
2023-05-13T06:57:21.919Z,13.76
2023-05-13T06:58:21.147Z,13.79
2023-05-13T06:59:19.333Z,13.83
2023-05-13T07:00:20.761Z,13.86
2023-05-13T07:01:20.780Z,13.88
2023-05-13T07:02:19.991Z,13.91
2023-05-13T07:03:19.181Z,13.94
2023-05-13T07:04:20.343Z,13.96
2023-05-13T07:05:19.541Z,13.98
2023-05-13T07:06:19.766Z,13.96
2023-05-13T07:07:20.905Z,13.94
2023-05-13T07:08:20.122Z,13.96
2023-05-13T07:09:20.274Z,13.93
2023-05-13T07:10:20.677Z,13.99
2023-05-13T07:11:20.709Z,14.02
2023-05-13T07:12:19.898Z,14.06
2023-05-13T07:13:19.100Z,14.06
2023-05-13T07:14:19.876Z,14.05
2023-05-13T07:15:20.695Z,14.09
2023-05-13T07:16:20.625Z,14.11
2023-05-13T07:17:20.888Z,14.12
2023-05-13T07:18:19.074Z,14.17
2023-05-13T07:19:19.406Z,14.21
2023-05-13T07:20:20.606Z,14.23
2023-05-13T07:21:19.621Z,14.27
2023-05-13T07:22:19.795Z,14.30
2023-05-13T07:23:18.969Z,14.38
2023-05-13T07:24:19.185Z,14.42
2023-05-13T07:25:19.339Z,14.48
2023-05-13T07:26:19.586Z,14.49
2023-05-13T07:27:19.728Z,14.54
2023-05-13T07:28:18.998Z,14.57
2023-05-13T07:29:19.204Z,14.64
2023-05-13T07:30:20.659Z,14.69
2023-05-13T07:31:20.651Z,14.66
2023-05-13T07:32:20.752Z,14.66
2023-05-13T07:33:18.852Z,14.67
2023-05-13T07:34:20.019Z,14.63
2023-05-13T07:35:20.365Z,14.71
2023-05-13T07:36:20.403Z,14.78
2023-05-13T07:37:20.617Z,14.80
2023-05-13T07:38:19.878Z,14.83
2023-05-13T07:39:19.999Z,14.90
2023-05-13T07:40:19.348Z,14.91
2023-05-13T07:41:20.381Z,14.97
2023-05-13T07:42:19.608Z,15.01
2023-05-13T07:43:19.728Z,15.07
2023-05-13T07:44:19.322Z,15.09
2023-05-13T07:45:20.258Z,15.05
2023-05-13T07:46:20.308Z,15.04
2023-05-13T07:47:19.596Z,15.01
2023-05-13T07:48:18.680Z,15.01
2023-05-13T07:49:18.912Z,14.98
2023-05-13T07:50:20.069Z,14.98
2023-05-13T07:51:20.266Z,15.03
2023-05-13T07:52:19.465Z,15.07
2023-05-13T07:53:19.795Z,15.09
2023-05-13T07:54:18.874Z,15.15
2023-05-13T07:55:19.074Z,15.15
2023-05-13T07:56:19.264Z,15.16
2023-05-13T07:57:19.342Z,15.15
2023-05-13T07:58:18.595Z,15.18
2023-05-13T07:59:18.752Z,15.20
2023-05-13T08:00:18.900Z,15.25
2023-05-13T08:01:20.079Z,15.30
2023-05-13T08:02:20.325Z,15.35
2023-05-13T08:03:20.134Z,15.41
2023-05-13T08:04:19.737Z,15.49
2023-05-13T08:05:19.979Z,15.53
2023-05-13T08:06:19.017Z,15.60
2023-05-13T08:07:20.146Z,15.67
2023-05-13T08:08:18.385Z,15.68
2023-05-13T08:09:19.523Z,15.73
2023-05-13T08:10:18.687Z,15.76
2023-05-13T08:11:19.815Z,15.77
2023-05-13T08:12:20.030Z,15.81
2023-05-13T08:13:18.205Z,15.86
2023-05-13T08:14:18.434Z,15.93
2023-05-13T08:15:18.606Z,15.98
2023-05-13T08:16:18.811Z,16.01
2023-05-13T08:17:18.989Z,16.04
2023-05-13T08:18:18.152Z,16.13
2023-05-13T08:19:18.429Z,16.23
2023-05-13T08:20:18.723Z,16.22
2023-05-13T08:21:18.710Z,16.25
2023-05-13T08:22:18.917Z,16.29
2023-05-13T08:23:18.106Z,16.27
2023-05-13T08:24:18.338Z,16.27
2023-05-13T08:25:18.605Z,16.29
2023-05-13T08:26:18.754Z,16.30
2023-05-13T08:27:20.003Z,16.36
2023-05-13T08:28:18.173Z,16.40
2023-05-13T08:29:18.390Z,16.40
2023-05-13T08:30:19.637Z,16.44
2023-05-13T08:31:18.894Z,16.44
2023-05-13T08:32:18.096Z,16.45
2023-05-13T08:33:18.247Z,16.44
2023-05-13T08:34:18.467Z,16.45
2023-05-13T08:35:18.640Z,16.44
2023-05-13T08:36:18.871Z,16.44
2023-05-13T08:37:18.109Z,16.50
2023-05-13T08:38:18.314Z,16.47
2023-05-13T08:39:18.441Z,16.48
2023-05-13T08:40:18.651Z,16.52
2023-05-13T08:41:21.193Z,16.57
2023-05-13T08:42:17.959Z,16.62
2023-05-13T08:43:18.206Z,16.70
2023-05-13T08:44:18.321Z,16.78
2023-05-13T08:45:18.530Z,16.80
2023-05-13T08:46:19.665Z,16.81
2023-05-13T08:47:17.864Z,16.82
2023-05-13T08:48:18.092Z,16.87
2023-05-13T08:49:18.736Z,16.90
2023-05-13T08:50:18.407Z,16.91
2023-05-13T08:51:18.595Z,16.98
2023-05-13T08:52:17.735Z,17.10
2023-05-13T08:53:17.963Z,17.20
2023-05-13T08:54:18.152Z,17.28
2023-05-13T08:55:18.384Z,17.36
2023-05-13T08:56:19.469Z,17.42
2023-05-13T08:57:18.635Z,17.51
2023-05-13T08:58:18.804Z,17.57
2023-05-13T08:59:18.044Z,17.58
2023-05-13T09:00:19.986Z,17.63
2023-05-13T09:01:18.439Z,17.66
2023-05-13T09:02:18.545Z,17.70
2023-05-13T09:03:17.650Z,17.76
2023-05-13T09:04:18.779Z,17.80
2023-05-13T09:05:18.089Z,17.83
2023-05-13T09:06:18.152Z,17.73
2023-05-13T09:07:18.331Z,17.74
2023-05-13T09:08:18.448Z,17.76
2023-05-13T09:09:17.577Z,17.68
2023-05-13T09:10:17.736Z,17.65
2023-05-13T09:11:17.908Z,17.57
2023-05-13T09:12:18.048Z,17.58
2023-05-13T09:13:18.495Z,17.62
2023-05-13T09:14:18.384Z,17.60
2023-05-13T09:15:17.533Z,17.57
2023-05-13T09:16:18.719Z,17.55
2023-05-13T09:17:17.836Z,17.54
2023-05-13T09:18:19.118Z,17.60
2023-05-13T09:19:18.356Z,17.62
2023-05-13T09:20:18.382Z,17.62
2023-05-13T09:21:17.492Z,17.63
2023-05-13T09:22:17.738Z,17.65
2023-05-13T09:23:17.881Z,17.68
2023-05-13T09:24:18.051Z,17.71
2023-05-13T09:25:18.705Z,17.74
2023-05-13T09:26:17.293Z,17.77
2023-05-13T09:27:18.425Z,17.83
2023-05-13T09:28:17.642Z,17.92
2023-05-13T09:29:17.841Z,18.01
2023-05-13T09:30:17.910Z,18.05
2023-05-13T09:31:18.119Z,18.16
2023-05-13T09:32:17.178Z,18.20
2023-05-13T09:33:18.397Z,18.19
2023-05-13T09:34:18.480Z,18.21
2023-05-13T09:35:18.829Z,18.20
2023-05-13T09:36:18.809Z,18.19
2023-05-13T09:37:18.066Z,18.20
2023-05-13T09:38:18.127Z,18.21
2023-05-13T09:39:18.273Z,18.25
2023-05-13T09:40:18.469Z,18.32
2023-05-13T09:41:18.600Z,18.42
2023-05-13T09:42:17.814Z,18.53
2023-05-13T09:43:18.088Z,18.64
2023-05-13T09:44:18.098Z,18.65
2023-05-13T09:45:17.308Z,18.76
2023-05-13T09:46:17.552Z,18.82
2023-05-13T09:47:17.685Z,18.84
2023-05-13T09:48:17.795Z,18.87
2023-05-13T09:49:17.972Z,18.90
2023-05-13T09:50:18.108Z,18.89
2023-05-13T09:51:17.245Z,18.83
2023-05-13T09:52:17.436Z,18.83
2023-05-13T09:53:17.596Z,18.87
2023-05-13T09:54:17.758Z,18.87
2023-05-13T09:55:17.180Z,18.90
2023-05-13T09:56:17.069Z,18.94
2023-05-13T09:57:17.170Z,19.01
2023-05-13T09:58:18.286Z,18.99
2023-05-13T09:59:17.487Z,19.06
2023-05-13T10:00:28.967Z,19.13
2023-05-13T10:01:18.794Z,19.17
2023-05-13T10:02:16.926Z,19.20
2023-05-13T10:03:17.063Z,19.17
2023-05-13T10:04:18.335Z,19.15
2023-05-13T10:05:17.365Z,19.21
2023-05-13T10:06:17.565Z,19.15
2023-05-13T10:07:17.677Z,19.12
2023-05-13T10:08:16.776Z,19.06
2023-05-13T10:09:16.964Z,19.07
2023-05-13T10:10:17.113Z,19.10
2023-05-13T10:11:17.294Z,19.15
2023-05-13T10:12:17.548Z,19.24
2023-05-13T10:13:17.657Z,19.24
2023-05-13T10:14:16.760Z,19.32
2023-05-13T10:15:16.933Z,19.39
2023-05-13T10:16:18.216Z,19.39
2023-05-13T10:17:17.279Z,19.40
2023-05-13T10:18:17.554Z,19.42
2023-05-13T10:19:16.655Z,19.40
2023-05-13T10:20:17.764Z,19.40
2023-05-13T10:21:16.958Z,19.38
2023-05-13T10:22:17.029Z,19.38
2023-05-13T10:23:17.204Z,19.39
2023-05-13T10:24:17.373Z,19.43
2023-05-13T10:25:17.490Z,19.42
2023-05-13T10:26:18.690Z,19.43
2023-05-13T10:27:16.773Z,19.49
2023-05-13T10:28:16.897Z,19.58
2023-05-13T10:29:18.030Z,19.68
2023-05-13T10:30:17.342Z,19.79
2023-05-13T10:31:17.447Z,19.94
2023-05-13T10:32:18.520Z,20.02
2023-05-13T10:33:16.714Z,20.15
2023-05-13T10:34:16.807Z,20.30
2023-05-13T10:35:17.911Z,20.46
2023-05-13T10:36:18.283Z,20.48
2023-05-13T10:37:17.285Z,20.44
2023-05-13T10:38:16.395Z,20.42
2023-05-13T10:39:16.577Z,20.53
2023-05-13T10:40:17.022Z,20.60
2023-05-13T10:41:16.838Z,20.76
2023-05-13T10:42:17.006Z,20.93
2023-05-13T10:43:18.184Z,21.00
2023-05-13T10:44:16.251Z,21.05
2023-05-13T10:45:16.378Z,21.05
2023-05-13T10:46:16.572Z,20.85
2023-05-13T10:47:16.727Z,20.56
2023-05-13T10:48:16.903Z,20.33
2023-05-13T10:49:16.938Z,20.01
2023-05-13T10:50:17.141Z,19.83
2023-05-13T10:51:17.272Z,19.67
2023-05-13T10:52:16.456Z,19.49
2023-05-13T10:53:16.607Z,19.35
2023-05-13T10:54:16.754Z,19.25
2023-05-13T10:55:16.910Z,19.16
2023-05-13T10:56:17.138Z,19.06
2023-05-13T10:57:17.794Z,18.93
2023-05-13T10:58:16.461Z,18.78
2023-05-13T10:59:16.588Z,18.68
2023-05-13T11:00:16.992Z,18.62
2023-05-13T11:01:17.077Z,18.60
2023-05-13T11:43:43.177Z,13.48
2023-05-13T11:44:42.162Z,13.50
2023-05-13T11:45:44.793Z,13.54
2023-05-13T11:46:44.055Z,13.57
2023-05-13T11:47:45.234Z,13.65
2023-05-13T11:48:43.810Z,13.66
2023-05-13T11:49:43.113Z,13.72
2023-05-13T11:50:42.194Z,13.79
2023-05-13T11:51:42.372Z,13.83
2023-05-13T11:52:42.558Z,13.84
2023-05-13T11:53:42.739Z,13.91
2023-05-13T11:54:41.908Z,13.96
2023-05-13T11:55:42.955Z,14.01
2023-05-13T11:56:43.236Z,14.05
2023-05-13T11:57:43.365Z,14.05
2023-05-13T11:58:42.633Z,14.01
2023-05-13T11:59:48.328Z,13.98
2023-05-13T12:00:45.823Z,13.93
2023-05-13T12:01:42.211Z,13.87
2023-05-13T12:02:42.603Z,13.87
2023-05-13T12:03:43.627Z,13.90
2023-05-13T12:04:41.928Z,13.93
2023-05-13T12:05:43.184Z,13.94
2023-05-13T12:06:43.220Z,13.98
2023-05-13T12:07:43.530Z,14.01
2023-05-13T12:08:41.784Z,14.01
2023-05-13T12:09:41.966Z,14.06
2023-05-13T12:10:42.161Z,14.19
2023-05-13T12:11:42.340Z,14.31
2023-05-13T12:12:42.577Z,14.42
2023-05-13T12:13:42.705Z,14.53
2023-05-13T12:14:41.832Z,14.52
2023-05-13T12:15:43.030Z,14.49
2023-05-13T12:16:42.514Z,14.53
2023-05-13T12:17:43.456Z,14.63
2023-05-13T12:18:43.513Z,14.75
2023-05-13T12:19:41.708Z,14.94
2023-05-13T12:20:41.828Z,15.11
2023-05-13T12:21:41.993Z,15.23
2023-05-13T12:22:42.209Z,15.33
2023-05-13T12:23:42.425Z,15.41
2023-05-13T12:24:42.485Z,15.33
2023-05-13T12:25:41.770Z,15.35
2023-05-13T12:26:42.737Z,15.33
2023-05-13T12:27:41.970Z,15.30
2023-05-13T12:28:43.119Z,15.19
2023-05-13T12:29:42.357Z,15.18
2023-05-13T12:30:41.417Z,15.13
2023-05-13T12:31:41.666Z,15.16
2023-05-13T12:32:43.759Z,15.12
2023-05-13T12:33:41.932Z,15.16
2023-05-13T12:34:42.100Z,15.16
2023-05-13T12:35:43.319Z,15.20
2023-05-13T12:36:41.420Z,15.22
2023-05-13T12:37:41.566Z,15.27
2023-05-13T12:38:42.743Z,15.23
2023-05-13T12:39:41.920Z,15.27
2023-05-13T12:40:42.110Z,15.28
2023-05-13T12:41:43.270Z,15.40
2023-05-13T12:42:41.416Z,15.44
2023-05-13T12:43:42.582Z,15.53
2023-05-13T12:44:42.740Z,15.70
2023-05-13T12:45:43.978Z,15.93
2023-05-13T12:46:42.190Z,16.04
2023-05-13T12:47:42.393Z,16.13
2023-05-13T12:48:42.445Z,16.10
2023-05-13T12:49:42.701Z,16.04
2023-05-13T12:50:42.751Z,15.96
2023-05-13T12:51:42.874Z,15.96
2023-05-13T12:52:43.090Z,15.95
2023-05-13T12:53:41.246Z,15.98
2023-05-13T12:54:42.310Z,15.92
2023-05-13T12:55:42.517Z,15.89
2023-05-13T12:56:41.694Z,15.84
2023-05-13T12:57:41.828Z,15.81
2023-05-13T12:58:43.011Z,15.74
2023-05-13T12:59:42.142Z,15.70
2023-05-13T13:00:42.339Z,15.67
2023-05-13T13:01:43.032Z,15.67
2023-05-13T13:02:41.694Z,15.59
2023-05-13T13:03:42.946Z,15.56
2023-05-13T13:04:42.093Z,15.60
2023-05-13T13:05:41.091Z,15.66
2023-05-13T13:06:42.232Z,15.64
2023-05-13T13:07:41.428Z,15.62
2023-05-13T13:08:41.581Z,15.70
2023-05-13T13:09:41.768Z,15.76
2023-05-13T13:10:42.883Z,15.81
2023-05-13T13:11:41.981Z,16.04
2023-05-13T13:12:41.270Z,16.18
2023-05-13T13:13:41.452Z,16.34
2023-05-13T13:14:41.547Z,16.48
2023-05-13T13:15:41.757Z,16.62
2023-05-13T13:16:41.901Z,16.81
2023-05-13T13:17:41.329Z,16.77
2023-05-13T13:18:42.265Z,16.75
2023-05-13T13:19:41.363Z,16.67
2023-05-13T13:20:41.582Z,16.66
2023-05-13T13:21:41.716Z,16.63
2023-05-13T13:22:40.809Z,16.65
2023-05-13T13:23:40.980Z,16.62
2023-05-13T13:24:41.137Z,16.60
2023-05-13T13:25:41.287Z,16.55
2023-05-13T13:26:42.416Z,16.59
2023-05-13T13:27:42.570Z,16.59
2023-05-13T13:28:41.690Z,16.66
2023-05-13T13:29:41.808Z,16.77
2023-05-13T13:30:41.053Z,16.92
2023-05-13T13:31:42.161Z,17.09
2023-05-13T13:32:41.406Z,17.24
2023-05-13T13:33:41.518Z,17.40
2023-05-13T13:34:42.611Z,17.68